createdAt,value
2019-03-20T00:00:17.485Z,1024.52
2019-03-20T00:01:17.449Z,1024.53
2019-03-20T00:02:17.478Z,1024.54
2019-03-20T00:03:17.432Z,1024.55
2019-03-20T00:04:17.411Z,1024.55
2019-03-20T00:05:17.435Z,1024.49
2019-03-20T00:06:17.397Z,1024.52
2019-03-20T00:07:17.393Z,1024.50
2019-03-20T00:08:17.372Z,1024.46
2019-03-20T00:09:17.377Z,1024.49
2019-03-20T00:10:17.349Z,1024.50
2019-03-20T00:11:17.366Z,1024.53
2019-03-20T00:12:17.326Z,1024.52
2019-03-20T00:13:17.332Z,1024.55
2019-03-20T00:14:17.305Z,1024.57
2019-03-20T00:15:17.308Z,1024.58
2019-03-20T00:16:17.347Z,1024.56
2019-03-20T00:17:17.273Z,1024.59
2019-03-20T00:18:17.266Z,1024.58
2019-03-20T00:19:17.261Z,1024.53
2019-03-20T00:20:17.239Z,1024.56
2019-03-20T00:21:17.241Z,1024.59
2019-03-20T00:22:17.214Z,1024.60
2019-03-20T00:23:17.223Z,1024.62
2019-03-20T00:24:17.231Z,1024.63
2019-03-20T00:25:17.217Z,1024.61
2019-03-20T00:26:17.224Z,1024.61
2019-03-20T00:27:17.184Z,1024.64
2019-03-20T00:28:17.157Z,1024.62
2019-03-20T00:29:17.149Z,1024.54
2019-03-20T00:30:17.152Z,1024.57
2019-03-20T00:31:17.139Z,1024.57
2019-03-20T00:32:17.140Z,1024.61
2019-03-20T00:33:17.114Z,1024.68
2019-03-20T00:34:17.094Z,1024.67
2019-03-20T00:35:17.075Z,1024.67
2019-03-20T00:36:17.091Z,1024.68
2019-03-20T00:37:17.092Z,1024.64
2019-03-20T00:38:17.062Z,1024.64
2019-03-20T00:39:17.063Z,1024.63
2019-03-20T00:40:17.102Z,1024.63
2019-03-20T00:41:17.047Z,1024.60
2019-03-20T00:42:17.029Z,1024.61
2019-03-20T00:43:17.020Z,1024.58
2019-03-20T00:44:16.977Z,1024.62
2019-03-20T00:45:16.965Z,1024.62
2019-03-20T00:46:16.989Z,1024.63
2019-03-20T00:47:16.984Z,1024.70
2019-03-20T00:48:16.945Z,1024.69
2019-03-20T00:49:16.967Z,1024.68
2019-03-20T00:50:16.906Z,1024.70
2019-03-20T00:51:16.902Z,1024.68
2019-03-20T00:52:16.901Z,1024.62
2019-03-20T00:53:16.881Z,1024.59
2019-03-20T00:54:16.922Z,1024.61
2019-03-20T00:55:16.861Z,1024.58
2019-03-20T00:56:16.849Z,1024.62
2019-03-20T00:57:16.863Z,1024.62
2019-03-20T00:58:16.818Z,1024.62
2019-03-20T00:59:16.818Z,1024.57
2019-03-20T01:00:16.798Z,1024.60
2019-03-20T01:01:16.835Z,1024.62
2019-03-20T01:02:16.794Z,1024.64
2019-03-20T01:03:16.772Z,1024.62
2019-03-20T01:04:16.763Z,1024.62
2019-03-20T01:05:16.742Z,1024.69
2019-03-20T01:06:16.733Z,1024.66
2019-03-20T01:07:16.778Z,1024.63
2019-03-20T01:08:16.713Z,1024.62
2019-03-20T01:09:16.698Z,1024.62
2019-03-20T01:10:16.694Z,1024.63
2019-03-20T01:11:16.681Z,1024.63
2019-03-20T01:12:17.793Z,1024.63
2019-03-20T01:13:16.670Z,1024.65
2019-03-20T01:14:16.651Z,1024.69
2019-03-20T01:15:16.635Z,1024.68
2019-03-20T01:16:16.633Z,1024.59
2019-03-20T01:17:16.617Z,1024.61
2019-03-20T01:18:16.623Z,1024.62
2019-03-20T01:19:16.601Z,1024.65
2019-03-20T01:20:16.589Z,1024.68
2019-03-20T01:21:16.571Z,1024.71
2019-03-20T01:22:16.565Z,1024.69
2019-03-20T01:23:16.567Z,1024.68
2019-03-20T01:24:16.536Z,1024.62
2019-03-20T01:25:16.540Z,1024.65
2019-03-20T01:26:16.555Z,1024.61
2019-03-20T01:27:16.509Z,1024.64
2019-03-20T01:28:16.521Z,1024.61
2019-03-20T01:29:16.481Z,1024.59
2019-03-20T01:30:16.474Z,1024.61
2019-03-20T01:31:16.467Z,1024.64
2019-03-20T01:32:16.464Z,1024.66
2019-03-20T01:33:16.457Z,1024.64
2019-03-20T01:34:16.431Z,1024.65
2019-03-20T01:35:23.718Z,1024.59
2019-03-20T01:36:17.410Z,1024.62
2019-03-20T01:37:16.396Z,1024.67
2019-03-20T01:38:16.427Z,1024.65
2019-03-20T01:39:16.379Z,1024.64
2019-03-20T01:40:16.365Z,1024.61
2019-03-20T01:41:16.354Z,1024.64
2019-03-20T01:42:16.344Z,1024.66
2019-03-20T01:43:16.360Z,1024.58
2019-03-20T01:44:16.334Z,1024.58
2019-03-20T01:45:16.392Z,1024.62
2019-03-20T01:46:16.334Z,1024.60
2019-03-20T01:47:16.285Z,1024.62
2019-03-20T01:48:16.280Z,1024.56
2019-03-20T01:49:16.284Z,1024.56
2019-03-20T01:50:16.264Z,1024.64
2019-03-20T01:51:16.256Z,1024.62
2019-03-20T01:52:16.234Z,1024.62
2019-03-20T01:53:16.220Z,1024.63
2019-03-20T01:54:16.226Z,1024.67
2019-03-20T01:55:16.202Z,1024.73
2019-03-20T01:56:16.202Z,1024.67
2019-03-20T01:57:16.188Z,1024.70
2019-03-20T01:58:16.165Z,1024.72
2019-03-20T01:59:16.178Z,1024.70
2019-03-20T02:00:16.157Z,1024.73
2019-03-20T02:01:16.135Z,1024.73
2019-03-20T02:02:16.132Z,1024.73
2019-03-20T02:03:16.143Z,1024.73
2019-03-20T02:04:16.117Z,1024.72
2019-03-20T02:05:16.100Z,1024.69
2019-03-20T02:06:16.078Z,1024.74
2019-03-20T02:07:16.070Z,1024.69
2019-03-20T02:08:16.056Z,1024.74
2019-03-20T02:09:16.073Z,1024.69
2019-03-20T02:10:16.036Z,1024.74
2019-03-20T02:11:16.024Z,1024.74
2019-03-20T02:12:16.012Z,1024.73
2019-03-20T02:13:16.014Z,1024.80
2019-03-20T02:14:16.002Z,1024.82
2019-03-20T02:15:15.994Z,1024.80
2019-03-20T02:16:15.965Z,1024.77
2019-03-20T02:17:15.968Z,1024.77
2019-03-20T02:18:15.954Z,1024.82
2019-03-20T02:19:16.136Z,1024.82
2019-03-20T02:20:15.922Z,1024.83
2019-03-20T02:21:15.917Z,1024.86
2019-03-20T02:22:15.908Z,1024.85
2019-03-20T02:23:15.887Z,1024.84
2019-03-20T02:24:15.897Z,1024.86
2019-03-20T02:25:15.910Z,1024.88
2019-03-20T02:26:15.858Z,1024.87
2019-03-20T02:27:15.873Z,1024.87
2019-03-20T02:28:15.839Z,1024.90
2019-03-20T02:29:15.841Z,1024.85
2019-03-20T02:30:15.828Z,1024.85
2019-03-20T02:31:15.823Z,1024.83
2019-03-20T02:32:15.794Z,1024.86
2019-03-20T02:33:15.784Z,1024.83
2019-03-20T02:34:15.794Z,1024.85
2019-03-20T02:35:15.774Z,1024.85
2019-03-20T02:36:15.760Z,1024.87
2019-03-20T02:37:15.728Z,1024.85
2019-03-20T02:38:15.746Z,1024.86
2019-03-20T02:39:15.710Z,1024.85
2019-03-20T02:40:15.736Z,1024.87
2019-03-20T02:41:15.691Z,1024.85
2019-03-20T02:42:15.720Z,1024.83
2019-03-20T02:43:15.669Z,1024.88
2019-03-20T02:44:15.693Z,1024.84
2019-03-20T02:45:15.662Z,1024.83
2019-03-20T02:46:15.635Z,1024.82
2019-03-20T02:47:15.622Z,1024.80
2019-03-20T02:48:15.612Z,1024.77
2019-03-20T02:49:15.618Z,1024.81
2019-03-20T02:50:15.649Z,1024.79
2019-03-20T02:51:15.578Z,1024.78
2019-03-20T02:52:15.572Z,1024.77
2019-03-20T02:53:15.587Z,1024.77
2019-03-20T02:54:15.548Z,1024.81
2019-03-20T02:55:15.563Z,1024.84
2019-03-20T02:56:15.525Z,1024.87
2019-03-20T02:57:17.405Z,1024.87
2019-03-20T02:58:15.518Z,1024.88
2019-03-20T02:59:15.496Z,1024.93
2019-03-20T03:00:15.494Z,1024.93
2019-03-20T03:01:15.470Z,1024.97
2019-03-20T03:02:15.457Z,1024.95
2019-03-20T03:03:15.443Z,1024.92
2019-03-20T03:04:15.443Z,1024.97
2019-03-20T03:05:15.569Z,1024.97
2019-03-20T03:06:15.413Z,1024.96
2019-03-20T03:07:15.398Z,1024.96
2019-03-20T03:08:15.401Z,1024.98
2019-03-20T03:09:15.401Z,1024.91
2019-03-20T03:10:15.363Z,1024.95
2019-03-20T03:11:15.392Z,1024.98
2019-03-20T03:12:15.339Z,1024.96
2019-03-20T03:13:15.340Z,1024.99
2019-03-20T03:14:15.326Z,1024.99
2019-03-20T03:15:15.324Z,1024.99
2019-03-20T03:16:15.319Z,1024.99
2019-03-20T03:17:15.283Z,1025.02
2019-03-20T03:18:15.276Z,1025.04
2019-03-20T03:19:15.272Z,1024.99
2019-03-20T03:20:15.291Z,1025.02
2019-03-20T03:21:15.320Z,1025.02
2019-03-20T03:22:15.256Z,1025.07
2019-03-20T03:23:15.223Z,1025.07
2019-03-20T03:24:15.212Z,1025.08
2019-03-20T03:25:15.235Z,1025.06
2019-03-20T03:26:15.212Z,1025.11
2019-03-20T03:27:15.181Z,1025.08
2019-03-20T03:28:15.163Z,1025.06
2019-03-20T03:29:15.155Z,1025.12
2019-03-20T03:30:15.149Z,1025.07
2019-03-20T03:31:15.161Z,1025.10
2019-03-20T03:32:15.124Z,1025.10
2019-03-20T03:33:15.128Z,1025.08
2019-03-20T03:34:15.098Z,1025.06
2019-03-20T03:35:18.167Z,1025.02
2019-03-20T03:36:21.061Z,1024.99
2019-03-20T03:37:16.065Z,1025.03
2019-03-20T03:38:15.061Z,1025.00
2019-03-20T03:39:15.053Z,1025.07
2019-03-20T03:40:15.027Z,1025.06
2019-03-20T03:41:15.014Z,1025.08
2019-03-20T03:42:15.029Z,1025.05
2019-03-20T03:43:14.993Z,1025.08
2019-03-20T03:44:14.983Z,1025.10
2019-03-20T03:45:14.980Z,1025.10
2019-03-20T03:46:14.964Z,1025.10
2019-03-20T03:47:14.972Z,1025.08
2019-03-20T03:48:14.939Z,1025.13
2019-03-20T03:49:14.941Z,1025.14
2019-03-20T03:50:14.955Z,1025.14
2019-03-20T03:51:14.902Z,1025.15
2019-03-20T03:52:14.922Z,1025.16
2019-03-20T03:53:14.885Z,1025.12
2019-03-20T03:54:14.881Z,1025.14
2019-03-20T03:55:15.069Z,1025.14
2019-03-20T03:56:14.847Z,1025.18
2019-03-20T03:57:14.856Z,1025.18
2019-03-20T03:58:14.831Z,1025.18
2019-03-20T03:59:14.853Z,1025.21
2019-03-20T04:00:14.808Z,1025.25
2019-03-20T04:01:14.795Z,1025.20
2019-03-20T04:02:14.801Z,1025.20
2019-03-20T04:03:14.787Z,1025.18
2019-03-20T04:04:14.760Z,1025.14
2019-03-20T04:05:14.756Z,1025.18
2019-03-20T04:06:14.740Z,1025.17
2019-03-20T04:07:14.751Z,1025.18
2019-03-20T04:08:14.716Z,1025.20
2019-03-20T04:09:14.711Z,1025.21
2019-03-20T04:10:14.704Z,1025.18
2019-03-20T04:11:14.694Z,1025.16
2019-03-20T04:12:14.689Z,1025.18
2019-03-20T04:13:14.654Z,1025.23
2019-03-20T04:14:14.678Z,1025.26
2019-03-20T04:15:14.663Z,1025.29
2019-03-20T04:16:14.634Z,1025.30
2019-03-20T04:17:14.633Z,1025.36
2019-03-20T04:18:14.608Z,1025.35
2019-03-20T04:19:14.604Z,1025.34
2019-03-20T04:20:14.588Z,1025.38
2019-03-20T04:21:14.574Z,1025.39
2019-03-20T04:22:14.592Z,1025.37
2019-03-20T04:23:14.566Z,1025.37
2019-03-20T04:24:14.544Z,1025.40
2019-03-20T04:25:14.534Z,1025.37
2019-03-20T04:26:14.515Z,1025.36
2019-03-20T04:27:14.500Z,1025.36
2019-03-20T04:28:14.507Z,1025.36
2019-03-20T04:29:14.488Z,1025.34
2019-03-20T04:30:14.465Z,1025.35
2019-03-20T04:31:14.474Z,1025.34
2019-03-20T04:32:14.448Z,1025.38
2019-03-20T04:33:14.469Z,1025.35
2019-03-20T04:34:14.429Z,1025.38
2019-03-20T04:35:14.418Z,1025.44
2019-03-20T04:36:14.403Z,1025.43
2019-03-20T04:37:14.400Z,1025.42
2019-03-20T04:38:14.399Z,1025.44
2019-03-20T04:39:14.378Z,1025.43
2019-03-20T04:40:14.386Z,1025.44
2019-03-20T04:41:14.347Z,1025.43
2019-03-20T04:42:14.342Z,1025.43
2019-03-20T04:43:14.354Z,1025.37
2019-03-20T04:44:14.319Z,1025.43
2019-03-20T04:45:14.314Z,1025.41
2019-03-20T04:46:14.300Z,1025.41
2019-03-20T04:47:14.287Z,1025.42
2019-03-20T04:48:14.287Z,1025.38
2019-03-20T04:49:14.266Z,1025.44
2019-03-20T04:50:14.265Z,1025.47
2019-03-20T04:51:14.244Z,1025.48
2019-03-20T04:52:14.234Z,1025.44
2019-03-20T04:53:14.263Z,1025.45
2019-03-20T04:54:14.206Z,1025.42
2019-03-20T04:55:14.202Z,1025.39
2019-03-20T04:56:14.188Z,1025.39
2019-03-20T04:57:14.182Z,1025.43
2019-03-20T04:58:14.197Z,1025.45
2019-03-20T04:59:14.315Z,1025.47
2019-03-20T05:00:14.158Z,1025.46
2019-03-20T05:01:14.228Z,1025.49
2019-03-20T05:02:14.118Z,1025.51
2019-03-20T05:03:14.107Z,1025.51
2019-03-20T05:04:14.147Z,1025.52
2019-03-20T05:05:14.095Z,1025.50
2019-03-20T05:06:14.074Z,1025.48
2019-03-20T05:07:14.074Z,1025.50
2019-03-20T05:08:14.055Z,1025.46
2019-03-20T05:09:14.067Z,1025.48
2019-03-20T05:10:14.033Z,1025.53
2019-03-20T05:11:14.025Z,1025.53
2019-03-20T05:12:14.019Z,1025.55
2019-03-20T05:13:13.999Z,1025.52
2019-03-20T05:14:14.003Z,1025.57
2019-03-20T05:15:13.979Z,1025.57
2019-03-20T05:16:13.959Z,1025.57
2019-03-20T05:17:13.959Z,1025.55
2019-03-20T05:18:13.941Z,1025.55
2019-03-20T05:19:13.950Z,1025.51
2019-03-20T05:20:13.944Z,1025.53
2019-03-20T05:21:13.915Z,1025.46
2019-03-20T05:22:13.912Z,1025.46
2019-03-20T05:23:13.889Z,1025.47
2019-03-20T05:24:13.893Z,1025.48
2019-03-20T05:25:13.870Z,1025.51
2019-03-20T05:26:13.852Z,1025.52
2019-03-20T05:27:13.842Z,1025.59
2019-03-20T05:28:13.833Z,1025.55
2019-03-20T05:29:13.937Z,1025.61
2019-03-20T05:30:13.827Z,1025.68
2019-03-20T05:31:13.797Z,1025.72
2019-03-20T05:32:13.795Z,1025.75
2019-03-20T05:33:13.769Z,1025.77
2019-03-20T05:34:13.783Z,1025.77
2019-03-20T05:35:13.751Z,1025.73
2019-03-20T05:36:13.754Z,1025.73
2019-03-20T05:37:13.726Z,1025.73
2019-03-20T05:38:13.725Z,1025.75
2019-03-20T05:39:15.775Z,1025.75
2019-03-20T05:40:13.689Z,1025.79
2019-03-20T05:41:13.679Z,1025.80
2019-03-20T05:42:13.683Z,1025.82
2019-03-20T05:43:13.665Z,1025.83
2019-03-20T05:44:13.676Z,1025.80
2019-03-20T05:45:13.639Z,1025.83
2019-03-20T05:46:13.623Z,1025.84
2019-03-20T05:47:13.724Z,1025.82
2019-03-20T05:48:13.619Z,1025.89
2019-03-20T05:49:13.683Z,1025.92
2019-03-20T05:50:13.607Z,1025.95
2019-03-20T05:51:13.794Z,1025.92
2019-03-20T05:52:13.551Z,1025.96
2019-03-20T05:53:13.559Z,1025.93
2019-03-20T05:54:13.534Z,1025.92
2019-03-20T05:55:13.540Z,1025.92
2019-03-20T05:56:13.542Z,1025.94
2019-03-20T05:57:13.525Z,1025.98
2019-03-20T05:58:13.497Z,1025.96
2019-03-20T05:59:13.510Z,1025.94
2019-03-20T06:00:13.504Z,1025.93
2019-03-20T06:01:13.480Z,1025.94
2019-03-20T06:02:13.446Z,1025.97
2019-03-20T06:03:13.435Z,1025.96
2019-03-20T06:04:13.425Z,1025.96
2019-03-20T06:05:13.454Z,1025.94
2019-03-20T06:06:13.409Z,1025.88
2019-03-20T06:07:21.209Z,1025.91
2019-03-20T06:08:14.384Z,1025.89
2019-03-20T06:09:13.385Z,1025.86
2019-03-20T06:10:13.408Z,1025.91
2019-03-20T06:11:13.348Z,1025.89
2019-03-20T06:12:13.341Z,1025.87
2019-03-20T06:13:13.326Z,1025.87
2019-03-20T06:14:13.319Z,1025.86
2019-03-20T06:15:13.334Z,1025.93
2019-03-20T06:16:13.312Z,1025.93
2019-03-20T06:17:13.286Z,1025.95
2019-03-20T06:18:13.265Z,1025.97
2019-03-20T06:19:13.256Z,1026.01
2019-03-20T06:20:13.272Z,1026.03
2019-03-20T06:21:13.253Z,1026.02
2019-03-20T06:22:13.231Z,1026.06
2019-03-20T06:23:13.243Z,1026.03
2019-03-20T06:24:13.198Z,1025.97
2019-03-20T06:25:13.346Z,1026.00
2019-03-20T06:26:13.257Z,1025.98
2019-03-20T06:27:13.167Z,1026.01
2019-03-20T06:28:13.173Z,1025.99
2019-03-20T06:29:13.144Z,1026.01
2019-03-20T06:30:13.418Z,1026.04
2019-03-20T06:31:13.136Z,1026.03
2019-03-20T06:32:13.130Z,1026.05
2019-03-20T06:33:13.105Z,1026.11
2019-03-20T06:34:13.094Z,1026.12
2019-03-20T06:35:13.097Z,1026.09
2019-03-20T06:36:13.472Z,1026.11
2019-03-20T06:37:13.054Z,1026.12
2019-03-20T06:38:13.046Z,1026.12
2019-03-20T06:39:13.045Z,1026.11
2019-03-20T06:40:13.023Z,1026.16
2019-03-20T06:41:13.048Z,1026.11
2019-03-20T06:42:13.014Z,1026.21
2019-03-20T06:43:12.984Z,1026.19
2019-03-20T06:44:12.981Z,1026.22
2019-03-20T06:45:13.011Z,1026.27
2019-03-20T06:46:12.975Z,1026.26
2019-03-20T06:47:12.980Z,1026.26
2019-03-20T06:48:12.924Z,1026.28
2019-03-20T06:49:12.931Z,1026.25
2019-03-20T06:50:12.915Z,1026.26
2019-03-20T06:51:12.916Z,1026.25
2019-03-20T06:52:12.886Z,1026.26
2019-03-20T06:53:12.903Z,1026.25
2019-03-20T06:54:12.867Z,1026.23
2019-03-20T06:55:12.858Z,1026.30
2019-03-20T06:56:12.859Z,1026.31
2019-03-20T06:57:12.834Z,1026.33
2019-03-20T06:58:12.830Z,1026.32
2019-03-20T06:59:12.812Z,1026.33
2019-03-20T07:00:12.804Z,1026.31
2019-03-20T07:01:12.834Z,1026.33
2019-03-20T07:02:12.782Z,1026.37
2019-03-20T07:03:12.859Z,1026.41
2019-03-20T07:04:12.779Z,1026.39
2019-03-20T07:05:12.747Z,1026.43
2019-03-20T07:06:12.729Z,1026.39
2019-03-20T07:07:15.268Z,1026.43
2019-03-20T07:08:12.741Z,1026.46
2019-03-20T07:09:12.707Z,1026.43
2019-03-20T07:10:12.704Z,1026.43
2019-03-20T07:11:12.679Z,1026.41
2019-03-20T07:12:12.685Z,1026.44
2019-03-20T07:13:12.664Z,1026.45
2019-03-20T07:14:12.650Z,1026.49
2019-03-20T07:15:12.635Z,1026.47
2019-03-20T07:16:12.625Z,1026.48
2019-03-20T07:17:12.641Z,1026.45
2019-03-20T07:18:12.606Z,1026.43
2019-03-20T07:19:12.597Z,1026.42
2019-03-20T07:20:12.580Z,1026.39
2019-03-20T07:21:12.584Z,1026.37
2019-03-20T07:22:12.579Z,1026.37
2019-03-20T07:23:12.549Z,1026.39
2019-03-20T07:24:12.561Z,1026.42
2019-03-20T07:25:12.525Z,1026.41
2019-03-20T07:26:12.527Z,1026.45
2019-03-20T07:27:12.529Z,1026.41
2019-03-20T07:28:12.499Z,1026.43
2019-03-20T07:29:12.561Z,1026.45
2019-03-20T07:30:12.483Z,1026.45
2019-03-20T07:31:15.694Z,1026.49
2019-03-20T07:32:12.475Z,1026.48
2019-03-20T07:33:12.454Z,1026.48
2019-03-20T07:34:12.425Z,1026.46
2019-03-20T07:35:12.422Z,1026.52
2019-03-20T07:36:12.409Z,1026.54
2019-03-20T07:37:12.411Z,1026.49
2019-03-20T07:38:12.384Z,1026.47
2019-03-20T07:39:12.391Z,1026.56
2019-03-20T07:40:12.362Z,1026.49
2019-03-20T07:41:12.372Z,1026.52
2019-03-20T07:42:12.361Z,1026.50
2019-03-20T07:43:12.324Z,1026.49
2019-03-20T07:44:12.317Z,1026.47
2019-03-20T07:45:12.315Z,1026.48
2019-03-20T07:46:12.309Z,1026.48
2019-03-20T07:47:12.300Z,1026.48
2019-03-20T07:48:21.555Z,1026.45
2019-03-20T07:49:13.261Z,1026.48
2019-03-20T07:50:12.253Z,1026.55
2019-03-20T07:51:12.254Z,1026.50
2019-03-20T07:52:12.245Z,1026.54
2019-03-20T07:53:12.222Z,1026.53
2019-03-20T07:54:12.255Z,1026.49
2019-03-20T07:55:12.191Z,1026.48
2019-03-20T07:56:12.191Z,1026.50
2019-03-20T07:57:12.206Z,1026.51
2019-03-20T07:58:12.164Z,1026.50
2019-03-20T07:59:12.158Z,1026.52
2019-03-20T08:00:12.150Z,1026.56
2019-03-20T08:01:12.129Z,1026.58
2019-03-20T08:02:12.114Z,1026.63
2019-03-20T08:03:12.124Z,1026.64
2019-03-20T08:04:12.102Z,1026.64
2019-03-20T08:05:12.088Z,1026.66
2019-03-20T08:06:12.068Z,1026.68
2019-03-20T08:07:12.073Z,1026.70
2019-03-20T08:08:12.079Z,1026.69
2019-03-20T08:09:12.045Z,1026.68
2019-03-20T08:10:12.033Z,1026.68
2019-03-20T08:11:12.013Z,1026.68
2019-03-20T08:12:12.011Z,1026.65
2019-03-20T08:13:12.013Z,1026.64
2019-03-20T08:14:11.993Z,1026.64
2019-03-20T08:15:11.983Z,1026.67
2019-03-20T08:16:11.974Z,1026.66
2019-03-20T08:17:11.989Z,1026.67
2019-03-20T08:18:11.953Z,1026.65
2019-03-20T08:19:11.936Z,1026.66
2019-03-20T08:20:11.915Z,1026.62
2019-03-20T08:21:11.900Z,1026.65
2019-03-20T08:22:11.891Z,1026.61
2019-03-20T08:23:11.908Z,1026.67
2019-03-20T08:24:11.872Z,1026.61
2019-03-20T08:25:11.861Z,1026.62
2019-03-20T08:26:11.868Z,1026.62
2019-03-20T08:27:11.838Z,1026.66
2019-03-20T08:28:11.859Z,1026.65
2019-03-20T08:29:11.844Z,1026.66
2019-03-20T08:30:13.754Z,1026.70
2019-03-20T08:31:11.803Z,1026.64
2019-03-20T08:32:11.806Z,1026.68
2019-03-20T08:33:11.802Z,1026.67
2019-03-20T08:34:11.760Z,1026.69
2019-03-20T08:35:11.768Z,1026.71
2019-03-20T08:36:11.728Z,1026.74
2019-03-20T08:37:11.719Z,1026.69
2019-03-20T08:38:18.330Z,1026.72
2019-03-20T08:39:12.699Z,1026.67
2019-03-20T08:40:11.708Z,1026.72
2019-03-20T08:41:11.692Z,1026.71
2019-03-20T08:42:11.708Z,1026.73
2019-03-20T08:43:11.654Z,1026.73
2019-03-20T08:44:11.670Z,1026.70
2019-03-20T08:45:11.642Z,1026.72
2019-03-20T08:46:11.638Z,1026.72
2019-03-20T08:47:11.635Z,1026.63
2019-03-20T08:48:11.609Z,1026.63
2019-03-20T08:49:11.611Z,1026.66
2019-03-20T08:50:11.571Z,1026.68
2019-03-20T08:51:11.581Z,1026.66
2019-03-20T08:52:11.562Z,1026.68
2019-03-20T08:53:11.562Z,1026.68
2019-03-20T08:54:11.544Z,1026.69
2019-03-20T08:55:11.517Z,1026.68
2019-03-20T08:56:11.612Z,1026.66
2019-03-20T08:57:11.494Z,1026.72
2019-03-20T08:58:11.477Z,1026.75
2019-03-20T08:59:11.493Z,1026.64
2019-03-20T09:00:11.458Z,1026.76
2019-03-20T09:01:11.452Z,1026.61
2019-03-20T09:02:11.434Z,1026.65
2019-03-20T09:03:11.425Z,1026.69
2019-03-20T09:04:11.421Z,1026.70
2019-03-20T09:05:11.426Z,1026.67
2019-03-20T09:06:11.412Z,1026.70
2019-03-20T09:07:11.404Z,1026.78
2019-03-20T09:08:11.375Z,1026.81
2019-03-20T09:09:11.362Z,1026.83
2019-03-20T09:10:11.360Z,1026.78
2019-03-20T09:11:11.373Z,1026.80
2019-03-20T09:12:11.327Z,1026.88
2019-03-20T09:13:11.355Z,1026.88
2019-03-20T09:14:11.323Z,1026.88
2019-03-20T09:15:11.308Z,1026.81
2019-03-20T09:16:11.300Z,1026.86
2019-03-20T09:17:12.544Z,1026.87
2019-03-20T09:18:11.271Z,1026.87
2019-03-20T09:19:11.264Z,1026.95
2019-03-20T09:20:11.267Z,1026.91
2019-03-20T09:21:11.234Z,1026.88
2019-03-20T09:22:11.248Z,1026.88
2019-03-20T09:23:11.346Z,1026.93
2019-03-20T09:24:11.196Z,1026.93
2019-03-20T09:25:11.221Z,1026.90
2019-03-20T09:26:11.191Z,1026.96
2019-03-20T09:27:11.169Z,1026.89
2019-03-20T09:28:11.181Z,1026.97
2019-03-20T09:29:18.456Z,1026.97
2019-03-20T09:30:12.129Z,1026.98
2019-03-20T09:31:11.141Z,1026.96
2019-03-20T09:32:11.119Z,1026.96
2019-03-20T09:33:11.126Z,1027.00
2019-03-20T09:34:11.105Z,1026.95
2019-03-20T09:35:11.078Z,1026.99
2019-03-20T09:36:11.109Z,1026.95
2019-03-20T09:37:11.061Z,1026.95
2019-03-20T09:38:11.043Z,1027.00
2019-03-20T09:39:11.035Z,1027.00
2019-03-20T09:40:11.021Z,1026.98
2019-03-20T09:41:11.024Z,1026.98
2019-03-20T09:42:11.004Z,1027.04
2019-03-20T09:43:10.984Z,1026.92
2019-03-20T09:44:10.981Z,1026.96
2019-03-20T09:45:10.963Z,1026.89
2019-03-20T09:46:10.995Z,1026.93
2019-03-20T09:47:10.946Z,1026.93
2019-03-20T09:48:10.927Z,1026.92
2019-03-20T09:49:10.922Z,1026.89
2019-03-20T09:50:10.905Z,1026.89
2019-03-20T09:51:10.905Z,1026.88
2019-03-20T09:52:10.903Z,1026.91
2019-03-20T09:53:10.874Z,1026.88
2019-03-20T09:54:10.868Z,1026.89
2019-03-20T09:55:10.881Z,1026.97
2019-03-20T09:56:10.850Z,1026.91
2019-03-20T09:57:10.849Z,1026.97
2019-03-20T09:58:11.848Z,1026.96
2019-03-20T09:59:10.851Z,1026.97
2019-03-20T10:00:10.798Z,1026.98
2019-03-20T10:01:10.803Z,1026.92
2019-03-20T10:02:10.809Z,1026.80
2019-03-20T10:03:10.781Z,1026.89
2019-03-20T10:04:10.749Z,1026.85
2019-03-20T10:05:10.748Z,1026.85
2019-03-20T10:06:10.735Z,1026.79
2019-03-20T10:07:10.754Z,1026.82
2019-03-20T10:08:10.705Z,1026.82
2019-03-20T10:09:10.694Z,1026.82
2019-03-20T10:10:10.681Z,1026.86
2019-03-20T10:11:10.683Z,1026.84
2019-03-20T10:12:10.664Z,1026.78
2019-03-20T10:13:10.669Z,1026.81
2019-03-20T10:14:10.642Z,1026.75
2019-03-20T10:15:10.634Z,1026.78
2019-03-20T10:16:10.617Z,1026.77
2019-03-20T10:17:10.640Z,1026.72
2019-03-20T10:18:10.613Z,1026.81
2019-03-20T10:19:10.586Z,1026.76
2019-03-20T10:20:10.573Z,1026.84
2019-03-20T10:21:10.564Z,1026.88
2019-03-20T10:22:10.550Z,1026.92
2019-03-20T10:23:10.578Z,1026.96
2019-03-20T10:24:10.534Z,1026.94
2019-03-20T10:25:10.519Z,1027.00
2019-03-20T10:26:10.507Z,1026.99
2019-03-20T10:27:10.509Z,1026.97
2019-03-20T10:28:10.499Z,1026.96
2019-03-20T10:29:10.504Z,1026.98
2019-03-20T10:30:10.465Z,1026.95
2019-03-20T10:31:10.453Z,1026.99
2019-03-20T10:32:10.441Z,1026.95
2019-03-20T10:33:10.442Z,1026.96
2019-03-20T10:34:10.453Z,1026.98
2019-03-20T10:35:10.420Z,1026.99
2019-03-20T10:36:10.446Z,1026.98
2019-03-20T10:37:10.394Z,1027.02
2019-03-20T10:38:10.383Z,1026.94
2019-03-20T10:39:10.445Z,1027.04
2019-03-20T10:40:10.384Z,1026.99
2019-03-20T10:41:10.344Z,1027.08
2019-03-20T10:42:10.340Z,1027.09
2019-03-20T10:43:10.322Z,1027.14
2019-03-20T10:44:10.368Z,1027.10
2019-03-20T10:45:10.311Z,1027.14
2019-03-20T10:46:10.296Z,1027.16
2019-03-20T10:47:11.667Z,1027.18
2019-03-20T10:48:10.277Z,1027.16
2019-03-20T10:49:10.296Z,1027.24
2019-03-20T10:50:10.275Z,1027.24
2019-03-20T10:51:10.242Z,1027.26
2019-03-20T10:52:10.227Z,1027.31
2019-03-20T10:53:10.255Z,1027.23
2019-03-20T10:54:10.226Z,1027.27
2019-03-20T10:55:10.204Z,1027.26
2019-03-20T10:56:10.187Z,1027.30
2019-03-20T10:57:10.204Z,1027.22
2019-03-20T10:58:10.170Z,1027.26
2019-03-20T10:59:10.185Z,1027.22
2019-03-20T11:00:10.226Z,1027.27
2019-03-20T11:01:10.137Z,1026.79
2019-03-20T11:02:10.149Z,1027.27
2019-03-20T11:03:10.139Z,1027.18
2019-03-20T11:04:10.147Z,1027.24
2019-03-20T11:05:10.103Z,1027.25
2019-03-20T11:06:10.099Z,1026.91
2019-03-20T11:07:10.080Z,1027.14
2019-03-20T11:08:10.070Z,1026.78
2019-03-20T11:09:18.110Z,1027.08
2019-03-20T11:10:11.046Z,1027.22
2019-03-20T11:11:10.082Z,1027.17
2019-03-20T11:12:10.042Z,1027.21
2019-03-20T11:13:10.021Z,1027.16
2019-03-20T11:14:10.011Z,1027.14
2019-03-20T11:15:10.034Z,1027.20
2019-03-20T11:16:10.038Z,1027.24
2019-03-20T11:17:09.985Z,1027.23
2019-03-20T11:18:09.985Z,1026.78
2019-03-20T11:19:10.041Z,1027.10
2019-03-20T11:20:09.966Z,1026.83
2019-03-20T11:21:09.947Z,1027.16
2019-03-20T11:22:18.386Z,1027.14
2019-03-20T11:23:10.915Z,1027.06
2019-03-20T11:24:09.923Z,1027.09
2019-03-20T11:25:09.921Z,1027.02
2019-03-20T11:26:09.889Z,1027.05
2019-03-20T11:27:09.879Z,1026.78
2019-03-20T11:28:09.871Z,1026.64
2019-03-20T11:29:09.862Z,1026.61
2019-03-20T11:30:09.865Z,1026.85
2019-03-20T11:31:09.865Z,1026.76
2019-03-20T11:32:09.827Z,1026.69
2019-03-20T11:33:09.827Z,1026.63
2019-03-20T11:34:09.810Z,1026.73
2019-03-20T11:35:09.818Z,1026.78
2019-03-20T11:36:09.827Z,1026.85
2019-03-20T11:37:09.786Z,1026.89
2019-03-20T11:38:09.764Z,1026.62
2019-03-20T11:39:09.762Z,1026.60
2019-03-20T11:40:09.781Z,1026.52
2019-03-20T11:41:09.733Z,1026.55
2019-03-20T11:42:09.740Z,1026.47
2019-03-20T11:43:09.709Z,1026.46
2019-03-20T11:44:09.703Z,1026.76
2019-03-20T11:45:09.707Z,1026.64
2019-03-20T11:46:09.684Z,1026.72
2019-03-20T11:47:09.689Z,1026.75
2019-03-20T11:48:09.667Z,1026.52
2019-03-20T11:49:09.645Z,1026.54
2019-03-20T11:50:09.650Z,1026.52
2019-03-20T11:51:09.622Z,1026.75
2019-03-20T11:52:09.609Z,1026.66
2019-03-20T11:53:09.609Z,1026.55
2019-03-20T11:54:09.617Z,1026.65
2019-03-20T11:55:09.613Z,1026.63
2019-03-20T11:56:09.567Z,1026.61
2019-03-20T11:57:09.556Z,1026.70
2019-03-20T11:58:09.551Z,1026.61
2019-03-20T11:59:09.574Z,1026.57
2019-03-20T12:00:09.556Z,1026.48
2019-03-20T12:01:09.518Z,1026.45
2019-03-20T12:02:09.502Z,1026.39
2019-03-20T12:03:09.494Z,1026.42
2019-03-20T12:04:09.484Z,1026.47
2019-03-20T12:05:09.495Z,1026.42